sensor_id;sensor_type;location;lat;lon;timestamp;P1;durP1;ratioP1;P2;durP2;ratioP2
11300;SDS011;5706;50.650;13.380;2023-03-01T00:01:43;14.53;;;8.73;;
11300;SDS011;5706;50.650;13.380;2023-03-01T00:04:11;14.53;;;8.43;;
11300;SDS011;5706;50.650;13.380;2023-03-01T00:06:39;14.83;;;8.83;;
11300;SDS011;5706;50.650;13.380;2023-03-01T00:09:08;10.53;;;7.93;;
11300;SDS011;5706;50.650;13.380;2023-03-01T00:11:37;13.53;;;8.33;;
11300;SDS011;5706;50.650;13.380;2023-03-01T00:14:04;11.73;;;7.67;;
11300;SDS011;5706;50.650;13.380;2023-03-01T00:16:33;14.10;;;7.90;;
11300;SDS011;5706;50.650;13.380;2023-03-01T00:19:03;13.87;;;8.27;;
11300;SDS011;5706;50.650;13.380;2023-03-01T00:21:31;12.00;;;8.13;;
11300;SDS011;5706;50.650;13.380;2023-03-01T00:24:00;12.37;;;8.23;;
11300;SDS011;5706;50.650;13.380;2023-03-01T00:26:29;12.70;;;7.43;;
11300;SDS011;5706;50.650;13.380;2023-03-01T00:28:58;15.63;;;8.10;;
11300;SDS011;5706;50.650;13.380;2023-03-01T00:31:28;17.83;;;8.43;;
11300;SDS011;5706;50.650;13.380;2023-03-01T00:33:58;11.03;;;7.93;;
11300;SDS011;5706;50.650;13.380;2023-03-01T00:36:29;14.07;;;7.63;;
11300;SDS011;5706;50.650;13.380;2023-03-01T00:38:59;15.23;;;8.63;;
11300;SDS011;5706;50.650;13.380;2023-03-01T00:41:28;11.23;;;7.73;;
11300;SDS011;5706;50.650;13.380;2023-03-01T00:43:57;11.03;;;7.33;;
11300;SDS011;5706;50.650;13.380;2023-03-01T00:46:25;10.17;;;6.63;;
11300;SDS011;5706;50.650;13.380;2023-03-01T00:48:55;12.97;;;7.10;;
11300;SDS011;5706;50.650;13.380;2023-03-01T00:51:23;12.27;;;7.60;;
11300;SDS011;5706;50.650;13.380;2023-03-01T00:53:53;11.93;;;7.57;;
11300;SDS011;5706;50.650;13.380;2023-03-01T00:56:23;11.97;;;6.30;;
11300;SDS011;5706;50.650;13.380;2023-03-01T00:58:52;11.73;;;7.07;;
11300;SDS011;5706;50.650;13.380;2023-03-01T01:01:22;9.20;;;6.87;;
11300;SDS011;5706;50.650;13.380;2023-03-01T01:03:53;11.63;;;7.00;;
11300;SDS011;5706;50.650;13.380;2023-03-01T01:06:23;14.90;;;7.50;;
11300;SDS011;5706;50.650;13.380;2023-03-01T01:08:54;9.27;;;6.63;;
11300;SDS011;5706;50.650;13.380;2023-03-01T01:11:26;12.07;;;7.17;;
11300;SDS011;5706;50.650;13.380;2023-03-01T01:13:56;12.57;;;7.20;;
11300;SDS011;5706;50.650;13.380;2023-03-01T01:16:26;10.67;;;7.10;;
11300;SDS011;5706;50.650;13.380;2023-03-01T01:18:56;10.23;;;7.27;;
11300;SDS011;5706;50.650;13.380;2023-03-01T01:21:24;15.80;;;7.90;;
11300;SDS011;5706;50.650;13.380;2023-03-01T01:23:52;12.80;;;8.17;;
11300;SDS011;5706;50.650;13.380;2023-03-01T01:26:21;9.73;;;6.33;;
11300;SDS011;5706;50.650;13.380;2023-03-01T01:28:52;9.13;;;6.77;;
11300;SDS011;5706;50.650;13.380;2023-03-01T01:31:21;9.00;;;6.33;;
11300;SDS011;5706;50.650;13.380;2023-03-01T01:33:51;15.73;;;7.63;;
11300;SDS011;5706;50.650;13.380;2023-03-01T01:36:19;11.63;;;6.73;;
11300;SDS011;5706;50.650;13.380;2023-03-01T01:38:47;9.67;;;6.70;;
11300;SDS011;5706;50.650;13.380;2023-03-01T01:41:15;12.60;;;6.87;;
11300;SDS011;5706;50.650;13.380;2023-03-01T01:43:43;13.63;;;7.03;;
11300;SDS011;5706;50.650;13.380;2023-03-01T01:46:16;13.70;;;6.87;;
11300;SDS011;5706;50.650;13.380;2023-03-01T01:48:55;11.60;;;6.57;;
11300;SDS011;5706;50.650;13.380;2023-03-01T01:51:30;13.97;;;6.47;;
11300;SDS011;5706;50.650;13.380;2023-03-01T01:54:06;10.83;;;6.93;;
11300;SDS011;5706;50.650;13.380;2023-03-01T01:56:40;9.03;;;6.43;;
11300;SDS011;5706;50.650;13.380;2023-03-01T01:59:14;9.37;;;6.33;;
11300;SDS011;5706;50.650;13.380;2023-03-01T02:01:42;10.97;;;6.70;;
11300;SDS011;5706;50.650;13.380;2023-03-01T02:04:12;10.13;;;6.07;;
11300;SDS011;5706;50.650;13.380;2023-03-01T02:06:41;8.57;;;5.77;;
11300;SDS011;5706;50.650;13.380;2023-03-01T02:09:17;11.30;;;6.50;;
11300;SDS011;5706;50.650;13.380;2023-03-01T02:11:48;9.33;;;6.13;;
11300;SDS011;5706;50.650;13.380;2023-03-01T02:14:18;9.70;;;5.93;;
11300;SDS011;5706;50.650;13.380;2023-03-01T02:16:45;10.43;;;6.07;;
11300;SDS011;5706;50.650;13.380;2023-03-01T02:19:17;8.57;;;5.97;;
11300;SDS011;5706;50.650;13.380;2023-03-01T02:22:03;12.57;;;6.03;;
11300;SDS011;5706;50.650;13.380;2023-03-01T02:24:45;10.43;;;6.13;;
11300;SDS011;5706;50.650;13.380;2023-03-01T02:27:29;12.70;;;6.63;;
11300;SDS011;5706;50.650;13.380;2023-03-01T02:30:08;10.00;;;6.07;;
11300;SDS011;5706;50.650;13.380;2023-03-01T02:32:38;10.90;;;7.00;;
11300;SDS011;5706;50.650;13.380;2023-03-01T02:35:08;10.80;;;6.47;;
11300;SDS011;5706;50.650;13.380;2023-03-01T02:37:39;10.53;;;5.67;;
11300;SDS011;5706;50.650;13.380;2023-03-01T02:40:09;13.37;;;7.13;;
11300;SDS011;5706;50.650;13.380;2023-03-01T02:42:44;12.87;;;6.70;;
11300;SDS011;5706;50.650;13.380;2023-03-01T02:45:19;9.40;;;6.00;;
11300;SDS011;5706;50.650;13.380;2023-03-01T02:47:48;7.70;;;5.80;;
11300;SDS011;5706;50.650;13.380;2023-03-01T02:50:20;12.77;;;6.47;;
11300;SDS011;5706;50.650;13.380;2023-03-01T02:53:13;12.40;;;6.40;;
11300;SDS011;5706;50.650;13.380;2023-03-01T02:55:48;12.80;;;6.13;;
11300;SDS011;5706;50.650;13.380;2023-03-01T02:58:16;10.13;;;6.57;;
11300;SDS011;5706;50.650;13.380;2023-03-01T03:00:45;11.17;;;6.77;;
11300;SDS011;5706;50.650;13.380;2023-03-01T03:03:15;9.67;;;5.97;;
11300;SDS011;5706;50.650;13.380;2023-03-01T03:05:45;10.47;;;6.53;;
11300;SDS011;5706;50.650;13.380;2023-03-01T03:08:13;10.90;;;6.73;;
11300;SDS011;5706;50.650;13.380;2023-03-01T03:10:48;10.27;;;6.40;;
11300;SDS011;5706;50.650;13.380;2023-03-01T03:13:16;11.27;;;6.40;;
11300;SDS011;5706;50.650;13.380;2023-03-01T03:15:45;8.67;;;5.33;;
11300;SDS011;5706;50.650;13.380;2023-03-01T03:18:14;10.43;;;6.37;;
11300;SDS011;5706;50.650;13.380;2023-03-01T03:20:43;11.70;;;6.87;;
11300;SDS011;5706;50.650;13.380;2023-03-01T03:23:12;12.03;;;6.50;;
11300;SDS011;5706;50.650;13.380;2023-03-01T03:25:40;9.73;;;5.40;;
11300;SDS011;5706;50.650;13.380;2023-03-01T03:28:07;11.63;;;7.00;;
11300;SDS011;5706;50.650;13.380;2023-03-01T03:30:36;9.47;;;6.20;;
11300;SDS011;5706;50.650;13.380;2023-03-01T03:33:07;11.57;;;7.37;;
11300;SDS011;5706;50.650;13.380;2023-03-01T03:35:38;11.00;;;6.53;;
11300;SDS011;5706;50.650;13.380;2023-03-01T03:38:10;9.07;;;5.90;;
11300;SDS011;5706;50.650;13.380;2023-03-01T03:40:45;10.50;;;6.73;;
11300;SDS011;5706;50.650;13.380;2023-03-01T03:43:15;13.60;;;6.33;;
11300;SDS011;5706;50.650;13.380;2023-03-01T03:45:44;11.13;;;6.83;;
11300;SDS011;5706;50.650;13.380;2023-03-01T03:48:15;9.30;;;6.23;;
11300;SDS011;5706;50.650;13.380;2023-03-01T03:50:47;10.80;;;6.30;;
11300;SDS011;5706;50.650;13.380;2023-03-01T03:53:17;12.27;;;6.93;;
11300;SDS011;5706;50.650;13.380;2023-03-01T03:55:45;11.13;;;6.37;;
11300;SDS011;5706;50.650;13.380;2023-03-01T03:58:14;11.57;;;6.20;;
11300;SDS011;5706;50.650;13.380;2023-03-01T04:00:45;8.23;;;6.10;;
11300;SDS011;5706;50.650;13.380;2023-03-01T04:03:17;12.80;;;6.47;;
11300;SDS011;5706;50.650;13.380;2023-03-01T04:05:47;12.30;;;6.57;;
11300;SDS011;5706;50.650;13.380;2023-03-01T04:08:15;11.07;;;5.73;;
11300;SDS011;5706;50.650;13.380;2023-03-01T04:10:45;9.73;;;5.73;;
11300;SDS011;5706;50.650;13.380;2023-03-01T04:13:15;12.17;;;6.20;;
11300;SDS011;5706;50.650;13.380;2023-03-01T04:15:45;9.93;;;7.07;;
11300;SDS011;5706;50.650;13.380;2023-03-01T04:18:15;11.30;;;6.73;;
11300;SDS011;5706;50.650;13.380;2023-03-01T04:20:46;11.13;;;6.43;;
11300;SDS011;5706;50.650;13.380;2023-03-01T04:23:14;7.97;;;4.93;;
11300;SDS011;5706;50.650;13.380;2023-03-01T04:25:45;10.17;;;6.37;;
11300;SDS011;5706;50.650;13.380;2023-03-01T04:28:19;10.33;;;6.27;;
11300;SDS011;5706;50.650;13.380;2023-03-01T04:30:49;10.60;;;6.37;;
11300;SDS011;5706;50.650;13.380;2023-03-01T04:33:18;9.30;;;6.23;;
11300;SDS011;5706;50.650;13.380;2023-03-01T04:35:46;13.57;;;7.37;;
11300;SDS011;5706;50.650;13.380;2023-03-01T04:38:15;9.27;;;5.77;;
11300;SDS011;5706;50.650;13.380;2023-03-01T04:40:43;12.47;;;6.30;;
11300;SDS011;5706;50.650;13.380;2023-03-01T04:43:11;9.50;;;5.60;;
11300;SDS011;5706;50.650;13.380;2023-03-01T04:45:40;13.77;;;6.47;;
11300;SDS011;5706;50.650;13.380;2023-03-01T04:48:08;15.20;;;6.23;;
11300;SDS011;5706;50.650;13.380;2023-03-01T04:50:37;10.50;;;6.30;;
11300;SDS011;5706;50.650;13.380;2023-03-01T04:53:04;13.73;;;6.50;;
11300;SDS011;5706;50.650;13.380;2023-03-01T04:55:33;10.03;;;6.10;;
11300;SDS011;5706;50.650;13.380;2023-03-01T04:58:00;9.40;;;5.67;;
11300;SDS011;5706;50.650;13.380;2023-03-01T05:00:28;13.27;;;6.67;;
11300;SDS011;5706;50.650;13.380;2023-03-01T05:02:56;11.20;;;6.67;;
11300;SDS011;5706;50.650;13.380;2023-03-01T05:05:29;7.43;;;5.83;;
11300;SDS011;5706;50.650;13.380;2023-03-01T05:08:02;10.80;;;6.40;;
11300;SDS011;5706;50.650;13.380;2023-03-01T05:10:33;9.47;;;5.43;;
11300;SDS011;5706;50.650;13.380;2023-03-01T05:13:03;13.30;;;6.23;;
11300;SDS011;5706;50.650;13.380;2023-03-01T05:15:31;9.47;;;5.80;;
11300;SDS011;5706;50.650;13.380;2023-03-01T05:18:01;9.93;;;5.77;;
11300;SDS011;5706;50.650;13.380;2023-03-01T05:20:32;11.20;;;7.00;;
11300;SDS011;5706;50.650;13.380;2023-03-01T05:23:02;11.17;;;5.93;;
11300;SDS011;5706;50.650;13.380;2023-03-01T05:25:31;11.53;;;6.33;;
11300;SDS011;5706;50.650;13.380;2023-03-01T05:28:05;12.60;;;7.00;;
11300;SDS011;5706;50.650;13.380;2023-03-01T05:30:36;12.53;;;6.77;;
11300;SDS011;5706;50.650;13.380;2023-03-01T05:33:05;14.30;;;7.27;;
11300;SDS011;5706;50.650;13.380;2023-03-01T05:35:38;10.30;;;5.97;;
11300;SDS011;5706;50.650;13.380;2023-03-01T05:38:08;10.47;;;5.70;;
11300;SDS011;5706;50.650;13.380;2023-03-01T05:40:38;12.77;;;6.90;;
11300;SDS011;5706;50.650;13.380;2023-03-01T05:43:06;12.93;;;7.13;;
11300;SDS011;5706;50.650;13.380;2023-03-01T05:45:35;19.57;;;10.10;;
11300;SDS011;5706;50.650;13.380;2023-03-01T05:48:04;13.17;;;7.23;;
11300;SDS011;5706;50.650;13.380;2023-03-01T05:50:34;13.27;;;7.70;;
11300;SDS011;5706;50.650;13.380;2023-03-01T05:53:05;10.90;;;6.30;;
11300;SDS011;5706;50.650;13.380;2023-03-01T05:55:37;11.73;;;7.03;;
11300;SDS011;5706;50.650;13.380;2023-03-01T05:58:06;12.90;;;6.20;;
11300;SDS011;5706;50.650;13.380;2023-03-01T06:00:39;10.83;;;6.93;;
11300;SDS011;5706;50.650;13.380;2023-03-01T06:03:08;11.27;;;6.27;;
11300;SDS011;5706;50.650;13.380;2023-03-01T06:05:38;10.87;;;7.03;;
11300;SDS011;5706;50.650;13.380;2023-03-01T06:08:06;11.30;;;7.07;;
11300;SDS011;5706;50.650;13.380;2023-03-01T06:10:36;10.93;;;5.77;;
11300;SDS011;5706;50.650;13.380;2023-03-01T06:13:04;16.23;;;7.27;;
11300;SDS011;5706;50.650;13.380;2023-03-01T06:15:32;13.60;;;7.63;;
11300;SDS011;5706;50.650;13.380;2023-03-01T06:18:00;11.83;;;7.13;;
11300;SDS011;5706;50.650;13.380;2023-03-01T06:20:28;14.93;;;8.23;;
11300;SDS011;5706;50.650;13.380;2023-03-01T06:22:56;12.27;;;7.53;;
11300;SDS011;5706;50.650;13.380;2023-03-01T06:25:26;13.70;;;8.57;;
11300;SDS011;5706;50.650;13.380;2023-03-01T06:27:55;22.10;;;10.13;;
11300;SDS011;5706;50.650;13.380;2023-03-01T06:30:23;16.17;;;8.90;;
11300;SDS011;5706;50.650;13.380;2023-03-01T06:32:52;9.97;;;6.73;;
11300;SDS011;5706;50.650;13.380;2023-03-01T06:35:26;11.23;;;6.47;;
11300;SDS011;5706;50.650;13.380;2023-03-01T06:37:56;11.30;;;6.53;;
11300;SDS011;5706;50.650;13.380;2023-03-01T06:40:26;13.13;;;6.63;;
11300;SDS011;5706;50.650;13.380;2023-03-01T06:42:54;12.70;;;6.87;;
11300;SDS011;5706;50.650;13.380;2023-03-01T06:45:22;11.20;;;6.10;;
11300;SDS011;5706;50.650;13.380;2023-03-01T06:47:50;14.33;;;7.57;;
11300;SDS011;5706;50.650;13.380;2023-03-01T06:50:18;11.53;;;6.80;;
11300;SDS011;5706;50.650;13.380;2023-03-01T06:52:46;10.23;;;7.50;;
11300;SDS011;5706;50.650;13.380;2023-03-01T06:55:13;17.60;;;9.30;;
11300;SDS011;5706;50.650;13.380;2023-03-01T06:57:42;11.37;;;7.57;;
11300;SDS011;5706;50.650;13.380;2023-03-01T07:00:10;12.93;;;8.33;;
11300;SDS011;5706;50.650;13.380;2023-03-01T07:02:39;13.50;;;7.63;;
11300;SDS011;5706;50.650;13.380;2023-03-01T07:05:07;15.83;;;9.37;;
11300;SDS011;5706;50.650;13.380;2023-03-01T07:07:35;18.33;;;8.97;;
11300;SDS011;5706;50.650;13.380;2023-03-01T07:10:03;14.87;;;8.53;;
11300;SDS011;5706;50.650;13.380;2023-03-01T07:12:32;12.47;;;8.77;;
11300;SDS011;5706;50.650;13.380;2023-03-01T07:15:01;17.60;;;8.87;;
11300;SDS011;5706;50.650;13.380;2023-03-01T07:17:29;16.10;;;8.47;;
11300;SDS011;5706;50.650;13.380;2023-03-01T07:19:57;13.43;;;8.40;;
11300;SDS011;5706;50.650;13.380;2023-03-01T07:22:24;16.07;;;8.87;;
11300;SDS011;5706;50.650;13.380;2023-03-01T07:24:52;16.63;;;8.57;;
11300;SDS011;5706;50.650;13.380;2023-03-01T07:27:19;16.73;;;8.70;;
11300;SDS011;5706;50.650;13.380;2023-03-01T07:29:47;14.20;;;8.90;;
11300;SDS011;5706;50.650;13.380;2023-03-01T07:32:16;13.83;;;8.17;;
11300;SDS011;5706;50.650;13.380;2023-03-01T07:34:43;16.07;;;9.70;;
11300;SDS011;5706;50.650;13.380;2023-03-01T07:37:11;16.27;;;8.40;;
11300;SDS011;5706;50.650;13.380;2023-03-01T07:39:38;13.17;;;7.97;;
11300;SDS011;5706;50.650;13.380;2023-03-01T07:42:06;15.73;;;8.83;;
11300;SDS011;5706;50.650;13.380;2023-03-01T07:44:34;13.83;;;8.97;;
11300;SDS011;5706;50.650;13.380;2023-03-01T07:47:02;12.60;;;8.33;;
11300;SDS011;5706;50.650;13.380;2023-03-01T07:49:32;17.63;;;8.83;;
11300;SDS011;5706;50.650;13.380;2023-03-01T07:52:00;13.57;;;7.57;;
11300;SDS011;5706;50.650;13.380;2023-03-01T07:54:28;17.23;;;8.67;;
11300;SDS011;5706;50.650;13.380;2023-03-01T07:56:56;18.43;;;9.57;;
11300;SDS011;5706;50.650;13.380;2023-03-01T07:59:24;14.70;;;9.70;;
11300;SDS011;5706;50.650;13.380;2023-03-01T08:01:54;14.13;;;8.17;;
11300;SDS011;5706;50.650;13.380;2023-03-01T08:04:21;15.93;;;8.60;;
11300;SDS011;5706;50.650;13.380;2023-03-01T08:06:51;15.13;;;9.40;;
11300;SDS011;5706;50.650;13.380;2023-03-01T08:09:19;17.33;;;8.97;;
11300;SDS011;5706;50.650;13.380;2023-03-01T08:11:47;16.43;;;8.77;;
11300;SDS011;5706;50.650;13.380;2023-03-01T08:14:14;17.37;;;10.50;;
11300;SDS011;5706;50.650;13.380;2023-03-01T08:16:42;15.03;;;10.47;;
11300;SDS011;5706;50.650;13.380;2023-03-01T08:19:10;15.33;;;8.60;;
11300;SDS011;5706;50.650;13.380;2023-03-01T08:21:39;18.27;;;10.20;;
11300;SDS011;5706;50.650;13.380;2023-03-01T08:24:08;19.70;;;10.97;;
11300;SDS011;5706;50.650;13.380;2023-03-01T08:26:36;16.53;;;9.70;;
11300;SDS011;5706;50.650;13.380;2023-03-01T08:29:04;18.70;;;9.23;;
11300;SDS011;5706;50.650;13.380;2023-03-01T08:31:32;16.27;;;9.70;;
11300;SDS011;5706;50.650;13.380;2023-03-01T08:34:03;16.73;;;9.77;;
11300;SDS011;5706;50.650;13.380;2023-03-01T08:36:35;16.93;;;10.07;;
11300;SDS011;5706;50.650;13.380;2023-03-01T08:39:05;17.53;;;10.30;;
11300;SDS011;5706;50.650;13.380;2023-03-01T08:41:34;16.73;;;10.40;;
11300;SDS011;5706;50.650;13.380;2023-03-01T08:44:03;23.93;;;10.53;;
11300;SDS011;5706;50.650;13.380;2023-03-01T08:46:35;15.97;;;9.47;;
11300;SDS011;5706;50.650;13.380;2023-03-01T08:49:06;15.00;;;9.30;;
11300;SDS011;5706;50.650;13.380;2023-03-01T08:51:37;17.20;;;9.80;;
11300;SDS011;5706;50.650;13.380;2023-03-01T08:54:05;18.73;;;10.40;;
11300;SDS011;5706;50.650;13.380;2023-03-01T08:56:38;17.43;;;10.63;;
11300;SDS011;5706;50.650;13.380;2023-03-01T08:59:05;16.40;;;9.50;;
11300;SDS011;5706;50.650;13.380;2023-03-01T09:01:34;16.10;;;9.60;;
11300;SDS011;5706;50.650;13.380;2023-03-01T09:04:02;15.27;;;10.10;;
11300;SDS011;5706;50.650;13.380;2023-03-01T09:06:30;17.17;;;10.13;;
11300;SDS011;5706;50.650;13.380;2023-03-01T09:08:59;18.37;;;10.97;;
11300;SDS011;5706;50.650;13.380;2023-03-01T09:11:28;16.40;;;10.90;;
11300;SDS011;5706;50.650;13.380;2023-03-01T09:13:57;17.57;;;11.30;;
11300;SDS011;5706;50.650;13.380;2023-03-01T09:16:25;16.57;;;11.70;;
11300;SDS011;5706;50.650;13.380;2023-03-01T09:18:54;17.90;;;11.80;;
11300;SDS011;5706;50.650;13.380;2023-03-01T09:21:22;16.27;;;11.37;;
11300;SDS011;5706;50.650;13.380;2023-03-01T09:23:57;21.00;;;11.53;;
11300;SDS011;5706;50.650;13.380;2023-03-01T09:33:17;15.60;;;10.97;;
11300;SDS011;5706;50.650;13.380;2023-03-01T09:35:55;18.10;;;12.00;;
11300;SDS011;5706;50.650;13.380;2023-03-01T09:38:24;16.90;;;10.70;;
11300;SDS011;5706;50.650;13.380;2023-03-01T09:40:52;14.70;;;10.10;;
11300;SDS011;5706;50.650;13.380;2023-03-01T09:43:21;16.53;;;10.70;;
11300;SDS011;5706;50.650;13.380;2023-03-01T09:45:58;14.93;;;10.20;;
11300;SDS011;5706;50.650;13.380;2023-03-01T09:48:33;13.47;;;10.13;;
11300;SDS011;5706;50.650;13.380;2023-03-01T09:51:12;11.40;;;8.70;;
11300;SDS011;5706;50.650;13.380;2023-03-01T09:53:45;13.17;;;9.53;;
11300;SDS011;5706;50.650;13.380;2023-03-01T09:56:14;13.03;;;9.17;;
11300;SDS011;5706;50.650;13.380;2023-03-01T09:58:49;12.63;;;9.40;;
11300;SDS011;5706;50.650;13.380;2023-03-01T10:01:43;13.10;;;9.97;;
11300;SDS011;5706;50.650;13.380;2023-03-01T10:07:48;14.73;;;10.17;;
11300;SDS011;5706;50.650;13.380;2023-03-01T10:10:32;17.27;;;9.00;;
11300;SDS011;5706;50.650;13.380;2023-03-01T10:13:40;16.17;;;9.40;;
11300;SDS011;5706;50.650;13.380;2023-03-01T10:17:03;15.57;;;10.17;;
11300;SDS011;5706;50.650;13.380;2023-03-01T10:23:00;13.33;;;9.63;;
11300;SDS011;5706;50.650;13.380;2023-03-01T10:25:47;17.17;;;9.90;;
